TimeEST,TemperatureF,Dew PointF,Humidity,Sea Level PressureIn,VisibilityMPH,Wind Direction,Wind SpeedMPH,Gust SpeedMPH,PrecipitationIn,Events,Conditions,WindDirDegrees,DateUTC
12:54 AM,28.9,27.0,92,29.96,-9999.0,North,18.4,25.3,0.12,,Unknown,360,2013-03-08 05:54:00
1:54 AM,28.0,27.0,96,29.95,-9999.0,North,18.4,26.5,0.10,,Unknown,360,2013-03-08 06:54:00
2:54 AM,28.0,26.1,92,29.93,-9999.0,North,19.6,33.4,0.07,,Unknown,10,2013-03-08 07:54:00
3:54 AM,28.0,26.1,92,29.93,-9999.0,North,15.0,32.2,0.07,,Unknown,10,2013-03-08 08:54:00
4:54 AM,28.0,26.1,92,29.93,-9999.0,North,16.1,32.2,0.09,,Unknown,360,2013-03-08 09:54:00
5:54 AM,28.0,26.1,92,29.94,-9999.0,North,17.3,27.6,0.13,,Unknown,10,2013-03-08 10:54:00
6:54 AM,28.0,26.1,92,29.94,-9999.0,North,18.4,31.1,0.21,,Unknown,10,2013-03-08 11:54:00
7:54 AM,28.0,26.1,92,29.95,-9999.0,North,17.3,29.9,0.22,,Unknown,360,2013-03-08 12:54:00
8:54 AM,28.0,26.1,92,29.95,-9999.0,North,23.0,38.0,0.12,,Unknown,10,2013-03-08 13:54:00
9:54 AM,28.0,26.1,92,29.97,-9999.0,North,20.7,34.5,0.15,,Unknown,10,2013-03-08 14:54:00
10:54 AM,28.0,26.1,92,29.98,-9999.0,North,16.1,32.2,0.17,,Unknown,10,2013-03-08 15:54:00
11:54 AM,28.9,27.0,92,30.00,-9999.0,North,19.6,32.2,0.17,,Unknown,10,2013-03-08 16:54:00
12:54 PM,30.0,28.0,92,29.99,-9999.0,North,16.1,28.8,0.15,,Unknown,10,2013-03-08 17:54:00
1:54 PM,30.0,28.0,92,30.01,-9999.0,North,16.1,29.9,0.14,,Unknown,10,2013-03-08 18:54:00
2:54 PM,33.1,27.0,78,30.01,-9999.0,NNE,24.2,36.8,0.05,,Unknown,20,2013-03-08 19:54:00
3:54 PM,33.1,28.9,85,30.04,-9999.0,NNE,23.0,35.7,0.02,,Unknown,20,2013-03-08 20:54:00
4:54 PM,35.1,28.0,76,30.07,-9999.0,NNE,23.0,46.0,0.05,,Unknown,30,2013-03-08 21:54:00
5:54 PM,37.9,24.1,57,30.09,-9999.0,NNE,19.6,28.8,N/A,,Unknown,20,2013-03-08 22:54:00
6:54 PM,37.9,24.1,57,30.10,-9999.0,North,16.1,25.3,N/A,,Unknown,10,2013-03-08 23:54:00
7:54 PM,37.0,23.0,57,30.11,-9999.0,North,17.3,24.2,N/A,,Unknown,10,2013-03-09 00:54:00
8:54 PM,37.0,21.9,54,30.12,-9999.0,North,15.0,25.3,N/A,,Unknown,10,2013-03-09 01:54:00
9:54 PM,37.0,21.0,52,30.14,-9999.0,North,16.1,27.6,N/A,,Unknown,10,2013-03-09 02:54:00
10:54 PM,36.0,19.9,52,30.15,-9999.0,North,11.5,24.2,N/A,,Unknown,360,2013-03-09 03:54:00
11:54 PM,35.1,19.9,54,30.15,-9999.0,North,16.1,25.3,N/A,,Unknown,10,2013-03-09 04:54:00